Time;durP1;ratioP1;P1;durP2;ratioP2;P2;SDS_P1;SDS_P2;PMS_P1;PMS_P2;Temp;Humidity;BMP_temperature;BMP_pressure;BME280_temperature;BME280_humidity;BME280_pressure;Samples;Min_cycle;Max_cycle;Signal;HPM_P1;HPM_P2
2022/12/24 00:55:09;;;;;;;5.10;3.43;;;3.50;99.90;;;;;;4851437;27;8633184;-92
2022/12/24 00:58:20;;;;;;;5.17;3.20;;;3.70;99.90;;;;;;5120375;28;20198;-93
2022/12/24 01:00:55;;;;;;;5.30;3.17;;;3.70;99.90;;;;;;5121914;28;20209;-95
2022/12/24 01:03:40;;;;;;;4.13;3.40;;;3.70;99.90;;;;;;5115886;28;20229;-94
2022/12/24 01:06:18;;;;;;;4.07;3.60;;;3.80;99.90;;;;;;5120561;28;20286;-94
2022/12/24 01:08:57;;;;;;;5.83;3.27;;;3.80;99.90;;;;;;5120178;28;20198;-94
2022/12/24 01:11:54;;;;;;;5.37;3.57;;;4.00;99.90;;;;;;5113908;28;20226;-95
2022/12/24 01:17:34;;;;;;;4.20;3.07;;;3.90;99.90;;;;;;5111869;28;20210;-94
2022/12/24 01:20:10;;;;;;;3.90;3.40;;;3.90;99.90;;;;;;5112278;28;20207;-94
2022/12/24 01:22:54;;;;;;;5.40;3.17;;;4.00;99.90;;;;;;5094411;28;20227;-94
2022/12/24 01:25:25;;;;;;;3.90;2.97;;;4.00;99.90;;;;;;5093260;28;20199;-94
2022/12/24 01:27:57;;;;;;;4.20;3.20;;;3.90;99.90;;;;;;5097997;28;20190;-93
2022/12/24 01:30:30;;;;;;;4.73;3.27;;;3.90;99.90;;;;;;5113568;28;20641;-93
2022/12/24 01:33:13;;;;;;;4.17;2.80;;;4.00;99.90;;;;;;5110444;28;20210;-92
2022/12/24 01:35:50;;;;;;;5.67;2.73;;;4.20;99.90;;;;;;5111797;28;20209;-93
2022/12/24 01:38:25;;;;;;;2.83;2.47;;;4.40;99.90;;;;;;5110038;28;20656;-94
2022/12/24 01:46:34;;;;;;;3.13;2.20;;;4.80;99.90;;;;;;5095469;28;20211;-93
2022/12/24 01:49:14;;;;;;;4.17;2.37;;;4.60;99.90;;;;;;5097056;28;20233;-91
2022/12/24 01:51:56;;;;;;;3.37;1.97;;;4.80;99.90;;;;;;5094231;28;20214;-93
2022/12/24 01:54:36;;;;;;;4.13;2.17;;;4.90;99.90;;;;;;5106451;28;20214;-93
2022/12/24 01:57:18;;;;;;;1.53;1.43;;;4.90;99.90;;;;;;5102310;28;20203;-93
2022/12/24 01:59:53;;;;;;;2.20;1.97;;;5.10;99.90;;;;;;5106511;28;20213;-94
2022/12/24 02:02:32;;;;;;;1.97;1.77;;;5.00;99.90;;;;;;5114361;28;20207;-94
2022/12/24 02:05:16;;;;;;;2.40;1.90;;;5.10;99.90;;;;;;5112755;28;20191;-93
2022/12/24 02:07:48;;;;;;;2.53;1.90;;;5.10;99.90;;;;;;5117995;28;20186;-94
2022/12/24 02:10:20;;;;;;;3.97;2.17;;;5.10;99.90;;;;;;5101796;28;20297;-92
2022/12/24 02:12:52;;;;;;;2.27;1.80;;;5.10;99.90;;;;;;5104648;28;20271;-94
2022/12/24 02:15:24;;;;;;;1.67;1.50;;;5.20;99.90;;;;;;5105874;28;20214;-94
2022/12/24 02:18:06;;;;;;;5.63;2.20;;;5.30;99.90;;;;;;5100873;28;20294;-93
2022/12/24 02:21:16;;;;;;;2.50;1.63;;;5.30;99.90;;;;;;5099479;28;20199;-93
2022/12/24 02:24:20;;;;;;;2.73;1.70;;;5.30;99.90;;;;;;5081613;28;20238;-93
2022/12/24 02:27:13;;;;;;;2.73;1.63;;;5.20;99.90;;;;;;5066013;28;20265;-92
2022/12/24 02:30:06;;;;;;;3.57;1.73;;;5.20;99.90;;;;;;5099209;28;20205;-93
2022/12/24 02:32:46;;;;;;;2.97;1.73;;;5.10;99.90;;;;;;5098452;28;20230;-91
2022/12/24 02:35:23;;;;;;;1.97;1.67;;;5.00;99.90;;;;;;5098058;28;20205;-91
2022/12/24 02:37:58;;;;;;;3.43;2.03;;;4.80;99.90;;;;;;5100280;28;20230;-91
2022/12/24 02:40:36;;;;;;;4.83;2.50;;;4.70;99.90;;;;;;5099629;28;20293;-91
2022/12/24 02:43:12;;;;;;;3.57;2.37;;;4.80;99.90;;;;;;5097054;28;20230;-91
2022/12/24 02:45:54;;;;;;;4.70;2.63;;;4.70;99.90;;;;;;5087946;28;20196;-90
2022/12/24 02:48:31;;;;;;;3.47;2.53;;;4.60;99.90;;;;;;5095131;28;20205;-91
2022/12/24 02:51:09;;;;;;;3.37;2.10;;;4.60;99.90;;;;;;5078072;28;20214;-91
2022/12/24 02:53:41;;;;;;;5.50;2.10;;;4.80;99.90;;;;;;5089469;28;20237;-90
2022/12/24 02:56:39;;;;;;;2.47;2.23;;;4.90;99.90;;;;;;5098691;28;20213;-91
2022/12/24 02:59:24;;;;;;;4.37;2.50;;;4.90;99.90;;;;;;5094011;28;20222;-91
2022/12/24 03:02:08;;;;;;;4.73;2.07;;;5.10;99.90;;;;;;5095123;28;20210;-92
2022/12/24 03:04:53;;;;;;;4.83;2.23;;;5.40;99.90;;;;;;5105840;28;20223;-91
2022/12/24 03:07:33;;;;;;;2.67;2.30;;;5.40;99.90;;;;;;5099641;28;20227;-92
2022/12/24 03:10:17;;;;;;;3.73;2.23;;;5.40;99.90;;;;;;5097299;28;20228;-93
2022/12/24 03:12:55;;;;;;;3.50;2.40;;;5.40;99.90;;;;;;5091169;28;20202;-92
2022/12/24 03:15:28;;;;;;;4.53;2.70;;;5.50;99.90;;;;;;5103768;28;20204;-92
2022/12/24 03:18:05;;;;;;;8.43;3.17;;;5.50;99.90;;;;;;5093796;28;20203;-90
2022/12/24 03:20:41;;;;;;;5.90;3.47;;;5.20;99.90;;;;;;5100566;28;20289;-90
2022/12/24 03:23:16;;;;;;;16.83;4.10;;;4.90;99.90;;;;;;5085474;28;20234;-89
2022/12/24 03:25:51;;;;;;;8.63;3.73;;;4.70;99.90;;;;;;5099785;28;20243;-91
2022/12/24 03:28:28;;;;;;;35.83;5.07;;;4.50;99.90;;;;;;5097817;28;20210;-91
2022/12/24 03:31:05;;;;;;;9.37;4.50;;;4.20;99.90;;;;;;5097515;28;20206;-91
2022/12/24 03:33:41;;;;;;;8.70;3.93;;;4.20;99.90;;;;;;5098166;28;20207;-91
2022/12/24 03:36:17;;;;;;;7.57;4.07;;;4.10;99.90;;;;;;5099816;28;20211;-91
2022/12/24 03:38:48;;;;;;;9.60;4.50;;;4.00;99.90;;;;;;5100324;28;20221;-92
2022/12/24 03:41:22;;;;;;;11.23;5.30;;;4.00;99.90;;;;;;5099813;28;20215;-91
2022/12/24 03:43:53;;;;;;;25.43;5.57;;;3.90;99.90;;;;;;5078624;28;20223;-91
2022/12/24 03:46:26;;;;;;;15.07;5.87;;;3.80;99.90;;;;;;5079327;28;20283;-90
2022/12/24 03:49:00;;;;;;;35.33;6.40;;;3.80;99.90;;;;;;5078814;28;20254;-91
2022/12/24 03:51:41;;;;;;;6.10;5.50;;;3.60;99.90;;;;;;5088653;28;20230;-91
2022/12/24 03:54:13;;;;;;;8.67;5.37;;;3.60;99.90;;;;;;5098620;28;20726;-91
2022/12/24 03:56:45;;;;;;;6.13;5.47;;;3.50;99.90;;;;;;5098729;28;20294;-91
2022/12/24 03:59:22;;;;;;;6.37;5.67;;;3.40;99.90;;;;;;5095321;28;20261;-91
2022/12/24 04:01:54;;;;;;;5.77;5.10;;;3.30;99.90;;;;;;5097161;28;20213;-92
2022/12/24 04:04:32;;;;;;;6.30;4.77;;;3.20;99.90;;;;;;5094742;28;20222;-91
2022/12/24 04:07:04;;;;;;;7.00;4.40;;;3.20;99.90;;;;;;5093940;28;20274;-91
2022/12/24 04:09:39;;;;;;;5.27;4.30;;;3.10;99.90;;;;;;5095820;28;20206;-93
2022/12/24 04:12:11;;;;;;;5.27;3.80;;;3.10;99.90;;;;;;5096156;28;20217;-92
2022/12/24 04:14:42;;;;;;;8.77;3.57;;;3.10;99.90;;;;;;5075288;28;20203;-91
2022/12/24 04:17:13;;;;;;;5.30;4.03;;;3.00;99.90;;;;;;5076226;28;20210;-91
2022/12/24 04:19:47;;;;;;;5.97;3.90;;;2.90;99.90;;;;;;5075428;28;20220;-92
2022/12/24 04:22:28;;;;;;;4.87;3.73;;;2.90;99.90;;;;;;5081106;28;20305;-93
2022/12/24 04:25:00;;;;;;;7.57;3.97;;;2.80;99.90;;;;;;5096402;28;20688;-92
2022/12/24 04:27:31;;;;;;;6.10;4.07;;;2.70;99.90;;;;;;5095800;28;20660;-92
2022/12/24 04:30:06;;;;;;;5.50;3.93;;;2.70;99.90;;;;;;5096343;28;20225;-91
2022/12/24 04:32:39;;;;;;;6.23;4.00;;;2.70;99.90;;;;;;5094913;28;20202;-91
2022/12/24 04:35:14;;;;;;;6.33;4.90;;;2.60;99.90;;;;;;5090484;28;20306;-92
2022/12/24 04:37:45;;;;;;;6.17;5.50;;;2.60;99.90;;;;;;5077529;28;20261;-91
2022/12/24 04:40:16;;;;;;;6.37;5.27;;;2.60;99.90;;;;;;5085716;28;20215;-91
2022/12/24 04:42:49;;;;;;;7.47;6.20;;;2.50;99.90;;;;;;5101909;28;20266;-91
2022/12/24 04:45:22;;;;;;;7.23;6.30;;;2.50;99.90;;;;;;5102155;28;20227;-92
2022/12/24 04:47:53;;;;;;;7.10;5.40;;;2.50;99.90;;;;;;5098130;28;20207;-91
2022/12/24 04:50:41;;;;;;;7.50;6.20;;;2.40;99.90;;;;;;5096343;28;20291;-91
2022/12/24 04:53:13;;;;;;;7.00;5.40;;;2.40;99.90;;;;;;5095403;28;20207;-91
2022/12/24 04:55:48;;;;;;;7.67;5.93;;;2.40;99.90;;;;;;5096303;28;20216;-92
2022/12/24 04:58:24;;;;;;;7.43;5.07;;;2.40;99.90;;;;;;5093841;28;20229;-91
2022/12/24 05:01:01;;;;;;;6.90;5.10;;;2.40;99.90;;;;;;5124834;23;20301;-90
2022/12/24 05:03:33;;;;;;;6.77;4.60;;;2.40;99.90;;;;;;5058315;28;20203;-91
2022/12/24 05:06:14;;;;;;;5.77;3.80;;;2.40;99.90;;;;;;5076051;28;20318;-92
2022/12/24 05:08:48;;;;;;;4.97;3.53;;;2.40;99.90;;;;;;5076705;28;20222;-92
2022/12/24 05:11:19;;;;;;;4.83;3.80;;;2.40;99.90;;;;;;5087889;28;20207;-92
2022/12/24 05:13:54;;;;;;;5.23;3.80;;;2.40;99.90;;;;;;5077426;28;20744;-92
2022/12/24 05:16:26;;;;;;;4.13;3.40;;;2.40;99.90;;;;;;5096161;28;20203;-91
2022/12/24 05:19:00;;;;;;;6.27;4.50;;;2.30;99.90;;;;;;5076693;28;20207;-93
2022/12/24 05:26:20;;;;;;;6.50;5.17;;;2.30;99.90;;;;;;5079590;28;20207;-93
2022/12/24 05:27:29;;;;;;;10.90;8.47;;;2.30;99.90;;;;;;5100568;28;20267;-93
2022/12/24 05:30:03;;;;;;;12.20;6.17;;;2.30;99.90;;;;;;5105192;28;20199;-92
2022/12/24 05:32:34;;;;;;;9.90;6.40;;;2.30;99.90;;;;;;5099488;28;20204;-93
2022/12/24 05:35:10;;;;;;;15.57;5.53;;;2.30;99.90;;;;;;5096129;28;20198;-92
2022/12/24 05:37:44;;;;;;;6.40;4.73;;;2.30;99.90;;;;;;5080635;28;20589;-91
2022/12/24 05:40:21;;;;;;;6.70;4.67;;;2.30;99.90;;;;;;5079935;28;20209;-92
2022/12/24 05:42:57;;;;;;;7.57;5.00;;;2.30;99.90;;;;;;5087063;28;20273;-91
2022/12/24 05:45:35;;;;;;;7.30;5.03;;;2.30;99.90;;;;;;5080807;28;20227;-93
2022/12/24 05:48:09;;;;;;;7.97;5.43;;;2.30;99.90;;;;;;5082177;28;20265;-93
2022/12/24 05:50:45;;;;;;;9.57;6.40;;;2.30;99.90;;;;;;5098516;28;20199;-92
2022/12/24 05:53:18;;;;;;;6.83;5.37;;;2.30;99.90;;;;;;5089240;28;20286;-91
2022/12/24 05:55:55;;;;;;;9.33;6.03;;;2.30;99.90;;;;;;5080945;28;20207;-91
2022/12/24 05:58:30;;;;;;;9.30;6.40;;;2.40;99.90;;;;;;5081349;28;20295;-91
2022/12/24 06:01:03;;;;;;;10.47;5.80;;;2.30;99.90;;;;;;5096805;28;20215;-92
2022/12/24 06:03:35;;;;;;;10.13;5.63;;;2.30;99.90;;;;;;5076360;28;20282;-92
2022/12/24 06:06:10;;;;;;;9.07;6.13;;;2.30;99.90;;;;;;5083517;28;20208;-92
2022/12/24 06:08:43;;;;;;;10.37;5.57;;;2.30;99.90;;;;;;5086756;28;20260;-92
2022/12/24 06:11:18;;;;;;;8.37;5.33;;;2.40;99.90;;;;;;5100067;28;20220;-92
2022/12/24 06:13:50;;;;;;;7.57;5.00;;;2.30;99.90;;;;;;5094703;28;20241;-92
2022/12/24 06:16:28;;;;;;;5.73;4.33;;;2.30;99.90;;;;;;5094037;28;20258;-91
2022/12/24 06:19:00;;;;;;;6.33;3.73;;;2.30;99.90;;;;;;5095286;28;20206;-91
2022/12/24 06:21:32;;;;;;;5.03;3.60;;;2.30;99.90;;;;;;5086211;28;20212;-91
2022/12/24 06:24:06;;;;;;;6.73;3.50;;;2.30;99.90;;;;;;5077510;28;20207;-92
2022/12/24 06:26:37;;;;;;;4.03;3.33;;;2.20;99.90;;;;;;5079056;28;20693;-93
2022/12/24 06:29:10;;;;;;;4.70;3.50;;;2.30;99.90;;;;;;5080452;28;20701;-93
2022/12/24 06:31:44;;;;;;;5.70;4.07;;;2.30;99.90;;;;;;5096872;28;20206;-93
2022/12/24 06:34:16;;;;;;;9.90;3.83;;;2.20;99.90;;;;;;5097345;28;20202;-93
2022/12/24 06:36:50;;;;;;;6.93;4.40;;;2.20;99.90;;;;;;5080678;28;20200;-92
2022/12/24 06:39:24;;;;;;;4.67;3.50;;;2.30;99.90;;;;;;5088915;28;20216;-92
2022/12/24 06:41:57;;;;;;;4.53;3.63;;;2.20;99.90;;;;;;5080328;28;20219;-93
2022/12/24 06:44:28;;;;;;;5.53;3.30;;;2.20;99.90;;;;;;5076775;28;20207;-93
2022/12/24 06:47:02;;;;;;;3.47;2.90;;;2.20;99.90;;;;;;5093971;28;20250;-92
2022/12/24 06:49:39;;;;;;;4.10;3.17;;;2.30;99.90;;;;;;5097046;28;20207;-93
2022/12/24 06:52:12;;;;;;;4.67;3.77;;;2.20;99.90;;;;;;5078848;28;20208;-93
2022/12/24 06:54:45;;;;;;;5.30;3.93;;;2.20;99.90;;;;;;5076345;28;20207;-93
2022/12/24 06:57:17;;;;;;;6.20;4.03;;;2.20;99.90;;;;;;5087093;28;20305;-93
2022/12/24 06:59:52;;;;;;;5.23;3.67;;;2.20;99.90;;;;;;5091856;28;20268;-93
2022/12/24 07:02:28;;;;;;;5.47;3.30;;;2.20;99.90;;;;;;5078889;28;20206;-92
2022/12/24 07:05:02;;;;;;;5.10;3.67;;;2.20;99.90;;;;;;5077174;28;20328;-92
2022/12/24 07:07:34;;;;;;;3.67;3.13;;;2.20;99.90;;;;;;5079954;28;20211;-92
2022/12/24 07:10:11;;;;;;;4.80;3.87;;;2.20;99.90;;;;;;5076632;28;20204;-93
2022/12/24 07:12:42;;;;;;;8.07;5.10;;;2.30;99.90;;;;;;5076574;28;20208;-93
2022/12/24 07:15:15;;;;;;;6.87;5.40;;;2.30;99.90;;;;;;5090787;28;20289;-93
2022/12/24 07:17:47;;;;;;;6.37;4.63;;;2.30;99.90;;;;;;5097765;28;20230;-92
2022/12/24 07:20:22;;;;;;;9.30;5.40;;;2.20;99.90;;;;;;5099277;28;20203;-91
2022/12/24 07:22:56;;;;;;;6.33;4.47;;;2.30;99.90;;;;;;5097415;28;20195;-92
2022/12/24 07:25:32;;;;;;;8.47;4.63;;;2.30;99.90;;;;;;5078843;28;20569;-91
2022/12/24 07:28:04;;;;;;;7.40;4.13;;;2.20;99.90;;;;;;5091393;28;20205;-94
2022/12/24 07:30:38;;;;;;;7.77;4.23;;;2.20;99.90;;;;;;5100874;28;20222;-92
2022/12/24 07:33:10;;;;;;;5.00;3.60;;;2.30;99.90;;;;;;5096856;28;20324;-92
2022/12/24 07:35:50;;;;;;;5.53;3.00;;;2.30;99.90;;;;;;5097624;28;20221;-93
2022/12/24 07:38:25;;;;;;;5.87;3.37;;;2.30;99.90;;;;;;5097899;28;20262;-92
2022/12/24 07:41:13;;;;;;;5.97;3.20;;;2.40;99.90;;;;;;5097765;28;20211;-92
2022/12/24 07:43:44;;;;;;;5.73;2.97;;;2.40;99.90;;;;;;5096939;28;20248;-92
2022/12/24 07:46:15;;;;;;;6.33;3.03;;;2.40;99.90;;;;;;5112260;28;20234;-93
2022/12/24 07:48:46;;;;;;;6.10;2.97;;;2.40;99.90;;;;;;5100507;28;20237;-93
2022/12/24 07:51:18;;;;;;;4.23;2.60;;;2.40;99.90;;;;;;5093951;28;20214;-93
2022/12/24 07:53:51;;;;;;;2.87;2.23;;;2.40;99.90;;;;;;5086090;28;20397;-92
2022/12/24 07:56:24;;;;;;;3.20;2.47;;;2.40;99.90;;;;;;5082874;28;20222;-92
2022/12/24 07:58:57;;;;;;;3.80;2.37;;;2.40;99.90;;;;;;5082766;28;20236;-91
2022/12/24 08:01:28;;;;;;;3.37;2.33;;;2.40;99.90;;;;;;5108256;28;20266;-91
2022/12/24 08:04:00;;;;;;;3.63;2.03;;;2.50;99.90;;;;;;5108868;28;20217;-93
2022/12/24 08:06:33;;;;;;;3.37;2.50;;;2.50;99.90;;;;;;5100868;28;20288;-92
2022/12/24 08:09:05;;;;;;;2.60;2.00;;;2.40;99.90;;;;;;5093800;28;20237;-91
2022/12/24 08:11:47;;;;;;;3.70;2.27;;;2.50;99.90;;;;;;5087636;28;20286;-91
2022/12/24 08:14:22;;;;;;;3.73;2.10;;;2.50;99.90;;;;;;5081221;28;20288;-91
2022/12/24 08:16:53;;;;;;;4.23;1.77;;;2.50;99.90;;;;;;5090948;28;20234;-91
2022/12/24 08:19:25;;;;;;;4.67;2.27;;;2.60;99.90;;;;;;5085155;28;20199;-91
2022/12/24 08:21:58;;;;;;;3.70;2.00;;;2.60;99.90;;;;;;5099019;28;20691;-91
2022/12/24 08:24:29;;;;;;;3.90;2.50;;;2.60;99.90;;;;;;5100560;28;20576;-91
2022/12/24 08:27:06;;;;;;;4.70;2.50;;;2.60;99.90;;;;;;5079025;28;20246;-91
2022/12/24 08:29:41;;;;;;;5.43;2.30;;;2.60;99.90;;;;;;5079201;28;20255;-92
2022/12/24 08:32:13;;;;;;;3.47;2.20;;;2.60;99.90;;;;;;5078068;28;20271;-92
2022/12/24 08:34:49;;;;;;;2.90;1.90;;;2.60;99.90;;;;;;5078544;28;20658;-92
2022/12/24 08:37:20;;;;;;;3.80;2.50;;;2.60;99.90;;;;;;5079455;28;20207;-92
2022/12/24 08:39:54;;;;;;;3.30;1.80;;;2.60;99.90;;;;;;5080600;28;20203;-92
